Airport View

Enter AWOS ICAO identifier for current METAR.

ex. KFNL

KGWO 112053Z AUTO 03005KT 10SM CLR 11/M02 A3050 RMK AO2 SLP330 T01111022 56017

11 Dec 2019 21:56

Frequency: 119.975

Phone: 662-453-3304

Other Area AWOS: K5A6 - KRNV - KGLH - KCKM

TAF KGWO 111732Z 1118/1218 02005KT P6SM SKC